sensor_id;sensor_type;location;lat;lon;timestamp;P1;durP1;ratioP1;P2;durP2;ratioP2
60999;SDS011;46879;45.658;11.814;2023-03-21T00:01:50;10.05;;;4.53;;
60999;SDS011;46879;45.658;11.814;2023-03-21T00:06:52;9.38;;;4.13;;
60999;SDS011;46879;45.658;11.814;2023-03-21T00:11:53;6.57;;;4.07;;
60999;SDS011;46879;45.658;11.814;2023-03-21T00:16:53;11.82;;;4.30;;
60999;SDS011;46879;45.658;11.814;2023-03-21T00:21:54;9.32;;;4.45;;
60999;SDS011;46879;45.658;11.814;2023-03-21T00:26:55;12.38;;;4.32;;
60999;SDS011;46879;45.658;11.814;2023-03-21T00:31:56;9.65;;;4.03;;
60999;SDS011;46879;45.658;11.814;2023-03-21T00:36:56;8.10;;;4.00;;
60999;SDS011;46879;45.658;11.814;2023-03-21T00:41:57;10.52;;;4.40;;
60999;SDS011;46879;45.658;11.814;2023-03-21T00:46:57;8.02;;;4.13;;
60999;SDS011;46879;45.658;11.814;2023-03-21T00:52:02;6.95;;;3.83;;
60999;SDS011;46879;45.658;11.814;2023-03-21T00:57:05;8.75;;;4.03;;
60999;SDS011;46879;45.658;11.814;2023-03-21T01:02:06;9.05;;;4.25;;
60999;SDS011;46879;45.658;11.814;2023-03-21T01:07:07;11.35;;;4.72;;
60999;SDS011;46879;45.658;11.814;2023-03-21T01:12:07;7.15;;;4.07;;
60999;SDS011;46879;45.658;11.814;2023-03-21T01:17:09;6.68;;;3.83;;
60999;SDS011;46879;45.658;11.814;2023-03-21T01:22:10;9.13;;;4.07;;
60999;SDS011;46879;45.658;11.814;2023-03-21T01:27:11;9.80;;;3.88;;
60999;SDS011;46879;45.658;11.814;2023-03-21T01:32:11;8.15;;;3.67;;
60999;SDS011;46879;45.658;11.814;2023-03-21T01:37:12;7.13;;;4.25;;
60999;SDS011;46879;45.658;11.814;2023-03-21T01:42:13;10.63;;;3.65;;
60999;SDS011;46879;45.658;11.814;2023-03-21T01:47:14;6.85;;;3.80;;
60999;SDS011;46879;45.658;11.814;2023-03-21T01:52:23;9.05;;;4.07;;
60999;SDS011;46879;45.658;11.814;2023-03-21T01:57:30;5.97;;;3.75;;
60999;SDS011;46879;45.658;11.814;2023-03-21T02:02:39;9.02;;;4.03;;
60999;SDS011;46879;45.658;11.814;2023-03-21T02:07:50;7.35;;;3.67;;
60999;SDS011;46879;45.658;11.814;2023-03-21T02:12:51;7.65;;;4.05;;
60999;SDS011;46879;45.658;11.814;2023-03-21T02:17:58;7.40;;;3.95;;
60999;SDS011;46879;45.658;11.814;2023-03-21T02:39:36;7.93;;;3.53;;
60999;SDS011;46879;45.658;11.814;2023-03-21T02:44:58;5.63;;;3.55;;
60999;SDS011;46879;45.658;11.814;2023-03-21T02:55:25;6.85;;;3.72;;
60999;SDS011;46879;45.658;11.814;2023-03-21T03:00:31;4.45;;;3.20;;
60999;SDS011;46879;45.658;11.814;2023-03-21T03:05:34;6.75;;;4.03;;
60999;SDS011;46879;45.658;11.814;2023-03-21T03:16:15;5.97;;;3.75;;
60999;SDS011;46879;45.658;11.814;2023-03-21T03:21:31;7.20;;;4.40;;
60999;SDS011;46879;45.658;11.814;2023-03-21T03:26:52;6.80;;;3.67;;
60999;SDS011;46879;45.658;11.814;2023-03-21T03:32:07;5.80;;;3.83;;
60999;SDS011;46879;45.658;11.814;2023-03-21T03:37:18;4.53;;;3.28;;
60999;SDS011;46879;45.658;11.814;2023-03-21T03:42:34;4.80;;;3.60;;
60999;SDS011;46879;45.658;11.814;2023-03-21T03:53:05;5.32;;;3.28;;
60999;SDS011;46879;45.658;11.814;2023-03-21T03:58:20;4.00;;;3.38;;
60999;SDS011;46879;45.658;11.814;2023-03-21T04:03:22;7.60;;;3.85;;
60999;SDS011;46879;45.658;11.814;2023-03-21T04:08:23;5.10;;;3.45;;
60999;SDS011;46879;45.658;11.814;2023-03-21T04:13:24;4.30;;;3.42;;
60999;SDS011;46879;45.658;11.814;2023-03-21T04:18:24;6.55;;;3.35;;
60999;SDS011;46879;45.658;11.814;2023-03-21T04:23:25;6.72;;;3.53;;
60999;SDS011;46879;45.658;11.814;2023-03-21T04:28:28;5.53;;;3.88;;
60999;SDS011;46879;45.658;11.814;2023-03-21T04:33:28;3.90;;;3.47;;
60999;SDS011;46879;45.658;11.814;2023-03-21T04:38:29;6.35;;;3.75;;
60999;SDS011;46879;45.658;11.814;2023-03-21T04:43:29;6.55;;;3.42;;
60999;SDS011;46879;45.658;11.814;2023-03-21T04:48:31;5.90;;;3.83;;
60999;SDS011;46879;45.658;11.814;2023-03-21T04:53:31;7.43;;;3.70;;
60999;SDS011;46879;45.658;11.814;2023-03-21T04:58:32;6.32;;;3.53;;
60999;SDS011;46879;45.658;11.814;2023-03-21T05:03:32;6.55;;;3.35;;
60999;SDS011;46879;45.658;11.814;2023-03-21T05:08:38;6.43;;;3.83;;
60999;SDS011;46879;45.658;11.814;2023-03-21T05:13:40;4.60;;;3.45;;
60999;SDS011;46879;45.658;11.814;2023-03-21T05:18:41;4.40;;;3.55;;
60999;SDS011;46879;45.658;11.814;2023-03-21T05:23:41;5.88;;;3.53;;
60999;SDS011;46879;45.658;11.814;2023-03-21T05:28:42;6.47;;;3.30;;
60999;SDS011;46879;45.658;11.814;2023-03-21T05:33:43;5.72;;;3.88;;
60999;SDS011;46879;45.658;11.814;2023-03-21T05:38:44;5.38;;;3.65;;
60999;SDS011;46879;45.658;11.814;2023-03-21T05:43:45;3.35;;;3.05;;
60999;SDS011;46879;45.658;11.814;2023-03-21T05:48:46;6.22;;;3.40;;
60999;SDS011;46879;45.658;11.814;2023-03-21T05:53:47;5.28;;;3.53;;
60999;SDS011;46879;45.658;11.814;2023-03-21T05:58:47;3.58;;;3.28;;
60999;SDS011;46879;45.658;11.814;2023-03-21T06:03:48;3.55;;;3.10;;
60999;SDS011;46879;45.658;11.814;2023-03-21T06:08:48;4.45;;;3.53;;
60999;SDS011;46879;45.658;11.814;2023-03-21T06:13:49;5.25;;;3.78;;
60999;SDS011;46879;45.658;11.814;2023-03-21T06:18:50;6.18;;;4.00;;
60999;SDS011;46879;45.658;11.814;2023-03-21T06:23:51;4.63;;;3.60;;
60999;SDS011;46879;45.658;11.814;2023-03-21T06:28:52;5.22;;;3.20;;
60999;SDS011;46879;45.658;11.814;2023-03-21T06:33:53;5.47;;;3.65;;
60999;SDS011;46879;45.658;11.814;2023-03-21T06:38:54;16.90;;;5.57;;
60999;SDS011;46879;45.658;11.814;2023-03-21T06:43:55;12.88;;;4.65;;
60999;SDS011;46879;45.658;11.814;2023-03-21T06:48:56;7.53;;;5.10;;
60999;SDS011;46879;45.658;11.814;2023-03-21T06:53:56;8.13;;;5.47;;
60999;SDS011;46879;45.658;11.814;2023-03-21T06:58:57;8.23;;;5.57;;
60999;SDS011;46879;45.658;11.814;2023-03-21T07:03:57;9.93;;;6.20;;
60999;SDS011;46879;45.658;11.814;2023-03-21T07:08:58;16.38;;;6.65;;
60999;SDS011;46879;45.658;11.814;2023-03-21T07:13:59;15.95;;;6.53;;
60999;SDS011;46879;45.658;11.814;2023-03-21T07:19:00;11.75;;;6.60;;
60999;SDS011;46879;45.658;11.814;2023-03-21T07:24:01;17.75;;;7.60;;
60999;SDS011;46879;45.658;11.814;2023-03-21T07:29:01;15.02;;;7.18;;
60999;SDS011;46879;45.658;11.814;2023-03-21T07:34:02;15.10;;;7.53;;
60999;SDS011;46879;45.658;11.814;2023-03-21T07:39:02;13.05;;;7.85;;
60999;SDS011;46879;45.658;11.814;2023-03-21T07:44:03;19.45;;;7.13;;
60999;SDS011;46879;45.658;11.814;2023-03-21T07:49:04;17.30;;;6.55;;
60999;SDS011;46879;45.658;11.814;2023-03-21T07:54:05;15.07;;;6.50;;
60999;SDS011;46879;45.658;11.814;2023-03-21T07:59:05;16.63;;;6.93;;
60999;SDS011;46879;45.658;11.814;2023-03-21T08:04:07;12.18;;;7.13;;
60999;SDS011;46879;45.658;11.814;2023-03-21T08:09:07;13.30;;;6.57;;
60999;SDS011;46879;45.658;11.814;2023-03-21T08:14:08;13.13;;;6.57;;
60999;SDS011;46879;45.658;11.814;2023-03-21T08:19:09;15.13;;;7.30;;
60999;SDS011;46879;45.658;11.814;2023-03-21T08:24:09;16.15;;;6.35;;
60999;SDS011;46879;45.658;11.814;2023-03-21T08:29:10;14.48;;;7.00;;
60999;SDS011;46879;45.658;11.814;2023-03-21T08:34:12;13.10;;;6.10;;
60999;SDS011;46879;45.658;11.814;2023-03-21T08:39:12;9.77;;;6.57;;
60999;SDS011;46879;45.658;11.814;2023-03-21T08:44:13;15.38;;;7.60;;
60999;SDS011;46879;45.658;11.814;2023-03-21T08:49:15;8.85;;;6.07;;
60999;SDS011;46879;45.658;11.814;2023-03-21T08:54:17;19.63;;;7.13;;
60999;SDS011;46879;45.658;11.814;2023-03-21T08:59:20;10.32;;;6.47;;
60999;SDS011;46879;45.658;11.814;2023-03-21T09:04:20;9.57;;;6.40;;
60999;SDS011;46879;45.658;11.814;2023-03-21T09:09:24;10.98;;;6.30;;
60999;SDS011;46879;45.658;11.814;2023-03-21T09:14:25;9.40;;;6.93;;
60999;SDS011;46879;45.658;11.814;2023-03-21T09:19:26;9.85;;;6.30;;
60999;SDS011;46879;45.658;11.814;2023-03-21T09:24:27;12.27;;;6.53;;
60999;SDS011;46879;45.658;11.814;2023-03-21T09:29:27;13.07;;;6.13;;
60999;SDS011;46879;45.658;11.814;2023-03-21T09:34:31;9.90;;;6.47;;
60999;SDS011;46879;45.658;11.814;2023-03-21T09:39:32;10.07;;;6.53;;
60999;SDS011;46879;45.658;11.814;2023-03-21T09:49:40;7.93;;;6.10;;
60999;SDS011;46879;45.658;11.814;2023-03-21T09:54:48;8.40;;;6.00;;
60999;SDS011;46879;45.658;11.814;2023-03-21T09:59:49;8.20;;;6.30;;
60999;SDS011;46879;45.658;11.814;2023-03-21T10:04:52;9.90;;;6.72;;
60999;SDS011;46879;45.658;11.814;2023-03-21T10:09:54;7.97;;;5.75;;
60999;SDS011;46879;45.658;11.814;2023-03-21T10:14:57;9.23;;;6.60;;
60999;SDS011;46879;45.658;11.814;2023-03-21T10:20:09;15.20;;;6.60;;
60999;SDS011;46879;45.658;11.814;2023-03-21T10:25:47;7.88;;;6.35;;
60999;SDS011;46879;45.658;11.814;2023-03-21T10:30:54;9.32;;;6.30;;
60999;SDS011;46879;45.658;11.814;2023-03-21T10:36:00;7.55;;;6.20;;
60999;SDS011;46879;45.658;11.814;2023-03-21T10:41:08;7.37;;;6.33;;
60999;SDS011;46879;45.658;11.814;2023-03-21T10:46:11;8.60;;;6.30;;
60999;SDS011;46879;45.658;11.814;2023-03-21T10:51:21;8.25;;;5.72;;
60999;SDS011;46879;45.658;11.814;2023-03-21T10:56:28;7.22;;;6.00;;
60999;SDS011;46879;45.658;11.814;2023-03-21T11:01:34;7.28;;;5.53;;
60999;SDS011;46879;45.658;11.814;2023-03-21T11:06:49;8.45;;;5.75;;
60999;SDS011;46879;45.658;11.814;2023-03-21T11:12:12;6.72;;;5.10;;
60999;SDS011;46879;45.658;11.814;2023-03-21T11:17:29;7.80;;;5.15;;
60999;SDS011;46879;45.658;11.814;2023-03-21T11:22:41;11.23;;;5.88;;
60999;SDS011;46879;45.658;11.814;2023-03-21T11:27:46;6.68;;;5.70;;
60999;SDS011;46879;45.658;11.814;2023-03-21T11:32:56;7.38;;;5.07;;
60999;SDS011;46879;45.658;11.814;2023-03-21T11:38:01;6.57;;;5.28;;
60999;SDS011;46879;45.658;11.814;2023-03-21T11:48:40;6.53;;;5.28;;
60999;SDS011;46879;45.658;11.814;2023-03-21T11:54:27;6.72;;;5.72;;
60999;SDS011;46879;45.658;11.814;2023-03-21T12:05:18;8.27;;;5.28;;
60999;SDS011;46879;45.658;11.814;2023-03-21T12:10:48;6.60;;;4.95;;
60999;SDS011;46879;45.658;11.814;2023-03-21T12:54:26;7.18;;;4.60;;
60999;SDS011;46879;45.658;11.814;2023-03-21T12:59:38;7.53;;;4.85;;
60999;SDS011;46879;45.658;11.814;2023-03-21T13:04:51;5.57;;;5.07;;
60999;SDS011;46879;45.658;11.814;2023-03-21T13:10:15;5.47;;;4.97;;
60999;SDS011;46879;45.658;11.814;2023-03-21T13:20:41;6.22;;;5.22;;
60999;SDS011;46879;45.658;11.814;2023-03-21T13:25:50;7.40;;;5.45;;
60999;SDS011;46879;45.658;11.814;2023-03-21T13:31:13;6.78;;;5.40;;
60999;SDS011;46879;45.658;11.814;2023-03-21T13:36:23;8.98;;;6.00;;
60999;SDS011;46879;45.658;11.814;2023-03-21T13:41:30;12.97;;;5.63;;
60999;SDS011;46879;45.658;11.814;2023-03-21T13:46:44;9.23;;;5.32;;
60999;SDS011;46879;45.658;11.814;2023-03-21T13:51:58;8.20;;;5.40;;
60999;SDS011;46879;45.658;11.814;2023-03-21T13:57:19;7.88;;;5.63;;
60999;SDS011;46879;45.658;11.814;2023-03-21T14:02:37;7.90;;;5.60;;
60999;SDS011;46879;45.658;11.814;2023-03-21T14:08:04;5.88;;;5.20;;
60999;SDS011;46879;45.658;11.814;2023-03-21T14:13:08;8.60;;;5.38;;
60999;SDS011;46879;45.658;11.814;2023-03-21T14:18:16;7.72;;;6.07;;
60999;SDS011;46879;45.658;11.814;2023-03-21T14:23:20;7.82;;;5.05;;
60999;SDS011;46879;45.658;11.814;2023-03-21T14:28:25;10.73;;;5.75;;
60999;SDS011;46879;45.658;11.814;2023-03-21T14:33:34;7.72;;;5.30;;
60999;SDS011;46879;45.658;11.814;2023-03-21T14:38:38;6.05;;;4.60;;
60999;SDS011;46879;45.658;11.814;2023-03-21T14:43:40;7.93;;;5.47;;
60999;SDS011;46879;45.658;11.814;2023-03-21T14:48:40;6.15;;;4.72;;
60999;SDS011;46879;45.658;11.814;2023-03-21T14:53:41;6.97;;;5.40;;
60999;SDS011;46879;45.658;11.814;2023-03-21T14:58:43;8.05;;;4.82;;
60999;SDS011;46879;45.658;11.814;2023-03-21T15:03:48;6.40;;;4.93;;
60999;SDS011;46879;45.658;11.814;2023-03-21T15:08:58;8.35;;;4.68;;
60999;SDS011;46879;45.658;11.814;2023-03-21T15:14:06;9.07;;;4.90;;
60999;SDS011;46879;45.658;11.814;2023-03-21T15:19:15;6.32;;;4.72;;
60999;SDS011;46879;45.658;11.814;2023-03-21T15:24:24;5.35;;;4.88;;
60999;SDS011;46879;45.658;11.814;2023-03-21T15:29:32;8.10;;;4.75;;
60999;SDS011;46879;45.658;11.814;2023-03-21T15:34:35;6.43;;;4.47;;
60999;SDS011;46879;45.658;11.814;2023-03-21T15:39:36;5.85;;;4.60;;
60999;SDS011;46879;45.658;11.814;2023-03-21T15:44:37;4.93;;;3.85;;
60999;SDS011;46879;45.658;11.814;2023-03-21T15:49:44;4.97;;;4.47;;
60999;SDS011;46879;45.658;11.814;2023-03-21T15:54:54;4.95;;;4.43;;
60999;SDS011;46879;45.658;11.814;2023-03-21T15:59:57;6.05;;;4.38;;
60999;SDS011;46879;45.658;11.814;2023-03-21T16:15:36;5.03;;;4.10;;
60999;SDS011;46879;45.658;11.814;2023-03-21T16:20:38;5.75;;;4.50;;
60999;SDS011;46879;45.658;11.814;2023-03-21T16:25:45;5.53;;;4.40;;
60999;SDS011;46879;45.658;11.814;2023-03-21T16:30:46;5.47;;;4.32;;
60999;SDS011;46879;45.658;11.814;2023-03-21T16:35:46;4.57;;;3.85;;
60999;SDS011;46879;45.658;11.814;2023-03-21T16:40:47;5.32;;;3.80;;
60999;SDS011;46879;45.658;11.814;2023-03-21T16:45:47;4.82;;;4.40;;
60999;SDS011;46879;45.658;11.814;2023-03-21T16:50:48;5.43;;;4.18;;
60999;SDS011;46879;45.658;11.814;2023-03-21T16:55:49;3.45;;;3.15;;
60999;SDS011;46879;45.658;11.814;2023-03-21T17:00:50;4.38;;;3.67;;
60999;SDS011;46879;45.658;11.814;2023-03-21T17:05:50;4.80;;;4.22;;
60999;SDS011;46879;45.658;11.814;2023-03-21T17:10:51;4.53;;;3.80;;
60999;SDS011;46879;45.658;11.814;2023-03-21T17:15:52;6.32;;;3.55;;
60999;SDS011;46879;45.658;11.814;2023-03-21T17:20:52;4.07;;;3.50;;
60999;SDS011;46879;45.658;11.814;2023-03-21T17:25:53;5.07;;;4.13;;
60999;SDS011;46879;45.658;11.814;2023-03-21T17:30:54;4.85;;;3.72;;
60999;SDS011;46879;45.658;11.814;2023-03-21T17:35:54;4.88;;;3.50;;
60999;SDS011;46879;45.658;11.814;2023-03-21T17:40:55;7.82;;;4.05;;
60999;SDS011;46879;45.658;11.814;2023-03-21T17:45:57;4.03;;;3.60;;
60999;SDS011;46879;45.658;11.814;2023-03-21T17:50:58;5.13;;;3.72;;
60999;SDS011;46879;45.658;11.814;2023-03-21T17:55:58;12.00;;;4.78;;
60999;SDS011;46879;45.658;11.814;2023-03-21T18:00:59;10.13;;;5.50;;
60999;SDS011;46879;45.658;11.814;2023-03-21T18:06:00;13.10;;;6.75;;
60999;SDS011;46879;45.658;11.814;2023-03-21T18:11:00;10.45;;;6.70;;
60999;SDS011;46879;45.658;11.814;2023-03-21T18:16:01;12.75;;;6.72;;
60999;SDS011;46879;45.658;11.814;2023-03-21T18:21:01;18.67;;;7.18;;
60999;SDS011;46879;45.658;11.814;2023-03-21T18:26:02;14.95;;;7.22;;
60999;SDS011;46879;45.658;11.814;2023-03-21T18:31:04;22.70;;;10.25;;
60999;SDS011;46879;45.658;11.814;2023-03-21T18:36:08;23.92;;;10.60;;
60999;SDS011;46879;45.658;11.814;2023-03-21T18:41:10;25.17;;;10.35;;
60999;SDS011;46879;45.658;11.814;2023-03-21T18:46:11;25.50;;;10.57;;
60999;SDS011;46879;45.658;11.814;2023-03-21T18:51:12;22.73;;;9.20;;
60999;SDS011;46879;45.658;11.814;2023-03-21T18:56:14;16.75;;;9.68;;
60999;SDS011;46879;45.658;11.814;2023-03-21T19:01:15;26.30;;;10.57;;
60999;SDS011;46879;45.658;11.814;2023-03-21T19:06:16;18.58;;;9.18;;
60999;SDS011;46879;45.658;11.814;2023-03-21T19:11:16;16.30;;;8.55;;
60999;SDS011;46879;45.658;11.814;2023-03-21T19:16:20;18.33;;;8.80;;
60999;SDS011;46879;45.658;11.814;2023-03-21T19:21:20;19.88;;;7.85;;
60999;SDS011;46879;45.658;11.814;2023-03-21T19:26:21;20.58;;;8.68;;
60999;SDS011;46879;45.658;11.814;2023-03-21T19:31:22;17.63;;;7.20;;
60999;SDS011;46879;45.658;11.814;2023-03-21T19:36:23;16.40;;;9.13;;
60999;SDS011;46879;45.658;11.814;2023-03-21T19:41:24;15.63;;;8.50;;
60999;SDS011;46879;45.658;11.814;2023-03-21T19:46:25;15.45;;;8.50;;
60999;SDS011;46879;45.658;11.814;2023-03-21T19:51:25;23.38;;;8.85;;
60999;SDS011;46879;45.658;11.814;2023-03-21T19:56:26;15.95;;;8.80;;
60999;SDS011;46879;45.658;11.814;2023-03-21T20:01:26;16.48;;;8.38;;
60999;SDS011;46879;45.658;11.814;2023-03-21T20:06:27;19.65;;;8.60;;
60999;SDS011;46879;45.658;11.814;2023-03-21T20:11:28;15.13;;;8.25;;
60999;SDS011;46879;45.658;11.814;2023-03-21T20:16:29;17.02;;;8.85;;
60999;SDS011;46879;45.658;11.814;2023-03-21T20:21:32;16.00;;;8.25;;
60999;SDS011;46879;45.658;11.814;2023-03-21T20:26:32;15.30;;;9.13;;
60999;SDS011;46879;45.658;11.814;2023-03-21T20:31:33;27.20;;;9.23;;
60999;SDS011;46879;45.658;11.814;2023-03-21T20:36:34;35.55;;;10.68;;
60999;SDS011;46879;45.658;11.814;2023-03-21T20:41:34;22.92;;;9.48;;
60999;SDS011;46879;45.658;11.814;2023-03-21T20:46:35;16.27;;;8.73;;
60999;SDS011;46879;45.658;11.814;2023-03-21T20:51:36;18.23;;;8.05;;
60999;SDS011;46879;45.658;11.814;2023-03-21T20:56:37;20.05;;;8.35;;
60999;SDS011;46879;45.658;11.814;2023-03-21T21:01:37;20.08;;;9.32;;
60999;SDS011;46879;45.658;11.814;2023-03-21T21:06:38;21.13;;;8.13;;
60999;SDS011;46879;45.658;11.814;2023-03-21T21:11:39;18.90;;;8.52;;
60999;SDS011;46879;45.658;11.814;2023-03-21T21:16:39;16.90;;;7.18;;
60999;SDS011;46879;45.658;11.814;2023-03-21T21:21:40;13.68;;;6.93;;
60999;SDS011;46879;45.658;11.814;2023-03-21T21:26:41;12.77;;;7.20;;
60999;SDS011;46879;45.658;11.814;2023-03-21T21:31:45;14.88;;;7.70;;
60999;SDS011;46879;45.658;11.814;2023-03-21T21:36:48;17.33;;;7.28;;
60999;SDS011;46879;45.658;11.814;2023-03-21T21:41:49;17.90;;;7.53;;
60999;SDS011;46879;45.658;11.814;2023-03-21T21:46:50;15.85;;;7.18;;
60999;SDS011;46879;45.658;11.814;2023-03-21T21:51:51;29.92;;;8.88;;
60999;SDS011;46879;45.658;11.814;2023-03-21T21:56:51;24.73;;;7.93;;
60999;SDS011;46879;45.658;11.814;2023-03-21T22:01:53;32.00;;;8.85;;
60999;SDS011;46879;45.658;11.814;2023-03-21T22:06:54;24.90;;;7.95;;
60999;SDS011;46879;45.658;11.814;2023-03-21T22:11:55;21.65;;;8.07;;
60999;SDS011;46879;45.658;11.814;2023-03-21T22:16:55;23.08;;;8.40;;
60999;SDS011;46879;45.658;11.814;2023-03-21T22:21:58;20.25;;;7.63;;
60999;SDS011;46879;45.658;11.814;2023-03-21T22:26:59;19.63;;;7.18;;
60999;SDS011;46879;45.658;11.814;2023-03-21T22:32:00;17.02;;;6.88;;
60999;SDS011;46879;45.658;11.814;2023-03-21T22:37:00;17.52;;;7.57;;
60999;SDS011;46879;45.658;11.814;2023-03-21T22:42:01;21.95;;;7.95;;
60999;SDS011;46879;45.658;11.814;2023-03-21T22:47:04;19.67;;;7.10;;
60999;SDS011;46879;45.658;11.814;2023-03-21T22:52:08;21.02;;;7.32;;
60999;SDS011;46879;45.658;11.814;2023-03-21T22:57:10;17.77;;;6.38;;
60999;SDS011;46879;45.658;11.814;2023-03-21T23:02:12;14.80;;;6.32;;
60999;SDS011;46879;45.658;11.814;2023-03-21T23:07:13;19.67;;;8.30;;
60999;SDS011;46879;45.658;11.814;2023-03-21T23:12:14;11.90;;;6.63;;
60999;SDS011;46879;45.658;11.814;2023-03-21T23:17:15;15.18;;;6.43;;
60999;SDS011;46879;45.658;11.814;2023-03-21T23:22:16;13.93;;;6.47;;
60999;SDS011;46879;45.658;11.814;2023-03-21T23:27:16;13.90;;;6.03;;
60999;SDS011;46879;45.658;11.814;2023-03-21T23:32:17;19.70;;;7.57;;
60999;SDS011;46879;45.658;11.814;2023-03-21T23:37:18;16.98;;;7.43;;
60999;SDS011;46879;45.658;11.814;2023-03-21T23:42:20;13.98;;;6.45;;
60999;SDS011;46879;45.658;11.814;2023-03-21T23:47:23;14.68;;;7.07;;
60999;SDS011;46879;45.658;11.814;2023-03-21T23:52:23;17.10;;;6.78;;
60999;SDS011;46879;45.658;11.814;2023-03-21T23:57:24;20.90;;;7.35;;
